createdAt,value
2018-12-29T00:01:22.684Z,0.80
2018-12-29T00:03:54.261Z,0.80
2018-12-29T00:06:25.497Z,0.80
2018-12-29T00:08:56.765Z,0.80
2018-12-29T00:11:28.025Z,0.80
2018-12-29T00:13:59.296Z,0.80
2018-12-29T00:16:30.551Z,0.80
2018-12-29T00:19:01.805Z,0.80
2018-12-29T00:21:33.084Z,0.80
2018-12-29T00:24:04.308Z,0.80
2018-12-29T00:26:35.589Z,0.80
2018-12-29T00:29:06.845Z,0.80
2018-12-29T00:31:38.093Z,0.80
2018-12-29T00:34:09.532Z,0.80
2018-12-29T00:36:40.761Z,0.80
2018-12-29T00:39:12.086Z,0.80
2018-12-29T00:41:43.347Z,0.70
2018-12-29T00:44:15.649Z,0.80
2018-12-29T00:46:46.922Z,0.80
2018-12-29T00:49:18.229Z,0.70
2018-12-29T00:51:49.501Z,0.80
2018-12-29T00:54:20.765Z,0.80
2018-12-29T00:56:52.073Z,0.70
2018-12-29T00:59:23.328Z,0.70
2018-12-29T01:01:55.585Z,0.70
2018-12-29T01:04:26.837Z,0.70
2018-12-29T01:06:58.089Z,0.70
2018-12-29T01:09:30.247Z,0.70
2018-12-29T01:12:01.493Z,0.70
2018-12-29T01:14:32.808Z,0.80
2018-12-29T01:17:04.186Z,0.80
2018-12-29T01:19:35.516Z,0.90
2018-12-29T01:22:07.220Z,0.90
2018-12-29T01:24:38.478Z,0.80
2018-12-29T01:27:09.740Z,0.80
2018-12-29T01:29:41.002Z,0.80
2018-12-29T01:32:12.287Z,0.80
2018-12-29T01:34:43.538Z,0.80
2018-12-29T01:37:14.809Z,0.80
2018-12-29T01:39:46.250Z,0.80
2018-12-29T01:42:17.881Z,0.80
2018-12-29T01:44:49.138Z,0.80
2018-12-29T01:47:20.429Z,0.80
2018-12-29T01:49:51.746Z,0.80
2018-12-29T01:52:23.026Z,0.80
2018-12-29T01:54:54.273Z,0.90
2018-12-29T01:57:25.583Z,0.80
2018-12-29T01:59:56.838Z,0.80
2018-12-29T02:02:29.754Z,0.80
2018-12-29T02:05:01.090Z,0.80
2018-12-29T02:07:32.358Z,0.80
2018-12-29T02:10:03.622Z,0.80
2018-12-29T02:12:34.888Z,0.80
2018-12-29T02:15:06.286Z,0.80
2018-12-29T02:17:37.564Z,0.80
2018-12-29T02:20:09.149Z,0.80
2018-12-29T02:22:40.383Z,0.70
2018-12-29T02:25:11.632Z,0.70
2018-12-29T02:27:43.006Z,0.70
2018-12-29T02:30:14.377Z,0.80
2018-12-29T02:32:46.029Z,0.70
2018-12-29T02:35:17.318Z,0.70
2018-12-29T02:37:50.620Z,0.70
2018-12-29T02:40:21.939Z,0.70
2018-12-29T02:42:53.233Z,0.70
2018-12-29T02:45:33.358Z,0.70
2018-12-29T02:48:02.526Z,0.70
2018-12-29T02:50:33.903Z,0.70
2018-12-29T02:53:05.221Z,0.70
2018-12-29T02:55:36.710Z,0.70
2018-12-29T02:58:08.167Z,0.70
2018-12-29T03:00:42.933Z,0.60
2018-12-29T03:03:14.439Z,0.60
2018-12-29T03:05:46.083Z,0.60
2018-12-29T03:08:17.345Z,0.60
2018-12-29T03:10:48.626Z,0.50
2018-12-29T03:13:21.148Z,0.60
2018-12-29T03:15:52.436Z,0.60
2018-12-29T03:18:24.711Z,0.60
2018-12-29T03:20:55.963Z,0.60
2018-12-29T03:23:27.217Z,0.50
2018-12-29T03:25:59.570Z,0.50
2018-12-29T03:28:30.823Z,0.50
2018-12-29T03:31:02.037Z,0.50
2018-12-29T03:33:33.306Z,0.50
2018-12-29T03:36:04.564Z,0.50
2018-12-29T03:38:35.848Z,0.60
2018-12-29T03:41:07.091Z,0.60
2018-12-29T03:43:38.389Z,0.60
2018-12-29T03:46:09.655Z,0.60
2018-12-29T03:48:40.914Z,0.60
2018-12-29T03:51:12.226Z,0.60
2018-12-29T03:53:43.799Z,0.60
2018-12-29T03:56:15.052Z,0.60
2018-12-29T03:58:46.307Z,0.60
2018-12-29T04:01:17.525Z,0.70
2018-12-29T04:03:48.771Z,0.60
2018-12-29T04:06:22.230Z,0.60
2018-12-29T04:09:32.813Z,0.60
2018-12-29T04:12:06.957Z,0.60
2018-12-29T04:14:38.261Z,0.60
2018-12-29T04:17:09.497Z,0.60
2018-12-29T04:19:40.755Z,0.60
2018-12-29T04:22:11.988Z,0.60
2018-12-29T04:24:43.269Z,0.60
2018-12-29T04:27:15.361Z,0.60
2018-12-29T04:29:46.632Z,0.70
2018-12-29T04:32:17.895Z,0.70
2018-12-29T04:34:49.153Z,0.60
2018-12-29T04:37:20.415Z,0.70
2018-12-29T04:39:51.920Z,0.70
2018-12-29T04:42:23.174Z,0.70
2018-12-29T04:44:55.505Z,0.70
2018-12-29T04:47:26.802Z,0.70
2018-12-29T04:49:58.046Z,0.70
2018-12-29T04:52:29.370Z,0.70
2018-12-29T04:55:00.697Z,0.70
2018-12-29T04:57:31.990Z,0.70
2018-12-29T05:00:03.346Z,0.70
2018-12-29T05:02:34.611Z,0.80
2018-12-29T05:05:06.232Z,0.80
2018-12-29T05:07:37.513Z,0.80
2018-12-29T05:10:08.763Z,0.80
2018-12-29T05:12:39.992Z,0.80
2018-12-29T05:15:11.265Z,0.80
2018-12-29T05:17:42.477Z,0.80
2018-12-29T05:20:13.749Z,0.80
2018-12-29T05:22:45.017Z,0.80
2018-12-29T05:25:16.289Z,0.80
2018-12-29T05:27:47.553Z,0.80
2018-12-29T05:30:18.814Z,0.80
2018-12-29T05:32:50.082Z,0.80
2018-12-29T05:35:21.462Z,0.80
2018-12-29T05:37:52.720Z,0.80
2018-12-29T05:40:24.008Z,0.80
2018-12-29T05:42:55.290Z,0.80
2018-12-29T05:45:26.494Z,0.80
2018-12-29T05:47:57.746Z,0.80
2018-12-29T05:50:29.020Z,0.80
2018-12-29T05:53:00.350Z,0.80
2018-12-29T05:55:32.212Z,0.80
2018-12-29T05:58:03.664Z,0.80
2018-12-29T06:00:34.913Z,0.80
2018-12-29T06:03:06.390Z,0.80
2018-12-29T06:05:38.081Z,0.70
2018-12-29T06:08:09.353Z,0.70
2018-12-29T06:10:40.648Z,0.70
2018-12-29T06:13:12.006Z,0.70
2018-12-29T06:15:44.253Z,0.70
2018-12-29T06:18:15.477Z,0.70
2018-12-29T06:20:46.764Z,0.80
2018-12-29T06:23:18.069Z,0.70
2018-12-29T06:25:49.304Z,0.70
2018-12-29T06:28:20.564Z,0.70
2018-12-29T06:30:51.782Z,0.70
2018-12-29T06:33:23.035Z,0.80
2018-12-29T06:35:54.306Z,0.70
2018-12-29T06:38:25.876Z,0.70
2018-12-29T06:40:57.141Z,0.70
2018-12-29T06:43:28.441Z,0.80
2018-12-29T06:45:59.692Z,0.70
2018-12-29T06:48:30.949Z,0.70
2018-12-29T06:51:02.472Z,0.80
2018-12-29T06:53:33.700Z,0.70
2018-12-29T06:56:04.978Z,0.70
2018-12-29T06:58:36.197Z,0.80
2018-12-29T07:01:07.460Z,0.80
2018-12-29T07:03:38.748Z,0.80
2018-12-29T07:06:09.969Z,0.80
2018-12-29T07:08:41.538Z,0.90
2018-12-29T07:11:12.753Z,0.90
2018-12-29T07:13:44.014Z,0.90
2018-12-29T07:16:16.005Z,0.90
2018-12-29T07:18:47.277Z,0.90
2018-12-29T07:21:18.539Z,0.90
2018-12-29T07:23:49.791Z,0.90
2018-12-29T07:26:21.035Z,0.90
2018-12-29T07:28:52.244Z,0.90
2018-12-29T07:31:23.641Z,0.90
2018-12-29T07:33:54.871Z,0.90
2018-12-29T07:36:26.157Z,0.90
2018-12-29T07:38:57.443Z,0.90
2018-12-29T07:41:29.698Z,0.90
2018-12-29T07:44:00.955Z,0.90
2018-12-29T07:46:32.229Z,0.90
2018-12-29T07:49:03.495Z,0.90
2018-12-29T07:51:34.765Z,0.90
2018-12-29T07:54:06.004Z,0.90
2018-12-29T07:56:37.272Z,0.90
2018-12-29T07:59:08.544Z,0.90
2018-12-29T08:01:39.802Z,0.90
2018-12-29T08:04:11.025Z,0.90
2018-12-29T08:06:42.266Z,0.90
2018-12-29T08:09:13.487Z,0.90
2018-12-29T08:11:44.781Z,0.90
2018-12-29T08:14:16.013Z,1.00
2018-12-29T08:16:47.306Z,0.90
2018-12-29T08:19:18.591Z,1.00
2018-12-29T08:21:49.842Z,0.90
2018-12-29T08:24:21.106Z,0.90
2018-12-29T08:26:52.333Z,0.90
2018-12-29T08:29:23.738Z,0.90
2018-12-29T08:31:55.186Z,0.90
2018-12-29T08:34:26.444Z,0.90
2018-12-29T08:36:57.709Z,0.90
2018-12-29T08:39:28.946Z,0.90
2018-12-29T08:42:00.200Z,0.90
2018-12-29T08:44:31.417Z,0.90
2018-12-29T08:47:04.715Z,0.90
2018-12-29T08:49:35.597Z,1.00
2018-12-29T08:52:06.917Z,1.00
2018-12-29T08:54:38.176Z,1.00
2018-12-29T08:57:10.448Z,1.00
2018-12-29T08:59:42.136Z,1.00
2018-12-29T09:02:13.556Z,0.90
2018-12-29T09:04:44.885Z,1.00
2018-12-29T09:07:16.998Z,1.00
2018-12-29T09:09:48.230Z,1.00
2018-12-29T09:12:19.918Z,1.00
2018-12-29T09:14:51.679Z,1.00
2018-12-29T09:17:23.122Z,1.00
2018-12-29T09:19:54.405Z,1.00
2018-12-29T09:22:25.758Z,1.10
2018-12-29T09:24:57.001Z,1.10
2018-12-29T09:27:28.266Z,1.10
2018-12-29T09:29:59.517Z,1.10
2018-12-29T09:32:30.785Z,1.20
2018-12-29T09:35:03.073Z,1.20
2018-12-29T09:37:34.291Z,1.20
2018-12-29T09:40:05.831Z,1.20
2018-12-29T09:42:37.093Z,1.20
2018-12-29T09:45:08.381Z,1.20
2018-12-29T09:47:39.656Z,1.20
2018-12-29T09:50:11.170Z,1.30
2018-12-29T09:52:42.678Z,1.30
2018-12-29T09:55:13.888Z,1.30
2018-12-29T09:57:45.178Z,1.30
2018-12-29T10:00:16.406Z,1.40
2018-12-29T10:02:47.660Z,1.40
2018-12-29T10:05:18.918Z,1.40
2018-12-29T10:07:50.222Z,1.40
2018-12-29T10:10:23.101Z,1.40
2018-12-29T10:12:54.374Z,1.40
2018-12-29T10:15:25.634Z,1.40
2018-12-29T10:17:57.945Z,1.40
2018-12-29T10:20:32.560Z,1.40
2018-12-29T10:23:03.837Z,1.40
2018-12-29T10:25:36.153Z,1.40
2018-12-29T10:28:07.405Z,1.40
2018-12-29T10:30:39.112Z,1.50
2018-12-29T10:33:10.462Z,1.50
2018-12-29T10:35:42.042Z,1.50
2018-12-29T10:38:14.317Z,1.50
2018-12-29T10:40:46.047Z,1.40
2018-12-29T10:43:17.299Z,1.40
2018-12-29T10:45:48.563Z,1.40
2018-12-29T10:48:19.804Z,1.50
2018-12-29T10:50:51.113Z,1.50
2018-12-29T10:53:22.878Z,1.50
2018-12-29T10:55:54.149Z,1.50
2018-12-29T10:58:26.448Z,1.50
2018-12-29T11:00:57.758Z,1.50
2018-12-29T11:03:29.018Z,1.50
2018-12-29T11:06:01.548Z,1.60
2018-12-29T11:08:33.826Z,1.60
2018-12-29T11:11:05.079Z,1.60
2018-12-29T11:13:36.651Z,1.70
2018-12-29T11:16:09.425Z,1.70
2018-12-29T11:18:40.644Z,1.80
2018-12-29T11:21:11.917Z,1.80
2018-12-29T11:23:43.170Z,1.80
2018-12-29T11:26:14.409Z,1.80
2018-12-29T11:28:46.037Z,1.80
2018-12-29T11:31:17.281Z,1.80
2018-12-29T11:33:48.534Z,1.80
2018-12-29T11:36:19.821Z,1.90
2018-12-29T11:38:51.133Z,1.90
2018-12-29T11:41:24.041Z,1.90
2018-12-29T11:43:55.446Z,1.90
2018-12-29T11:46:26.708Z,1.90
2018-12-29T11:49:02.014Z,1.90
2018-12-29T11:51:34.376Z,1.90
2018-12-29T11:54:05.737Z,2.00
2018-12-29T11:56:37.016Z,2.00
2018-12-29T11:59:08.570Z,2.10
2018-12-29T12:01:39.797Z,2.10
2018-12-29T12:04:11.054Z,2.00
2018-12-29T12:06:42.309Z,2.00
2018-12-29T12:09:13.563Z,2.00
2018-12-29T12:11:44.775Z,2.00
2018-12-29T12:14:16.479Z,2.00
2018-12-29T12:16:47.735Z,2.10
2018-12-29T12:19:20.014Z,2.10
2018-12-29T12:21:52.289Z,2.10
2018-12-29T12:24:23.554Z,2.10
2018-12-29T12:26:55.668Z,2.20
2018-12-29T12:29:26.982Z,2.20
2018-12-29T12:31:58.706Z,2.20
2018-12-29T12:34:30.261Z,2.20
2018-12-29T12:37:01.521Z,2.30
2018-12-29T12:39:32.753Z,2.30
2018-12-29T12:42:03.999Z,2.30
2018-12-29T12:44:35.272Z,2.30
2018-12-29T12:47:06.917Z,2.30
2018-12-29T12:49:38.352Z,2.30
2018-12-29T12:52:09.693Z,2.30
2018-12-29T12:54:41.036Z,2.40
2018-12-29T12:57:12.661Z,2.40
2018-12-29T12:59:44.446Z,2.50
2018-12-29T13:02:15.765Z,2.50
2018-12-29T13:04:47.013Z,2.50
2018-12-29T13:07:18.448Z,2.50
2018-12-29T13:09:50.698Z,2.50
2018-12-29T13:12:21.967Z,2.60
2018-12-29T13:14:53.821Z,2.60
2018-12-29T13:17:26.553Z,2.60
2018-12-29T13:19:57.822Z,2.70
2018-12-29T13:22:29.159Z,2.70
2018-12-29T13:25:00.573Z,2.70
2018-12-29T13:27:31.848Z,2.70
2018-12-29T13:30:04.301Z,2.70
2018-12-29T13:32:35.830Z,2.70
2018-12-29T13:35:07.474Z,2.70
2018-12-29T13:37:38.693Z,2.70
2018-12-29T13:40:10.199Z,2.80
2018-12-29T13:42:41.432Z,2.80
2018-12-29T13:45:12.704Z,2.80
2018-12-29T13:47:44.013Z,2.70
2018-12-29T13:50:15.299Z,2.70
2018-12-29T13:52:48.770Z,2.70
2018-12-29T13:55:20.549Z,2.70
2018-12-29T13:57:52.005Z,2.70
2018-12-29T14:00:23.297Z,2.80
2018-12-29T14:02:54.573Z,2.80
2018-12-29T14:05:25.946Z,2.80
2018-12-29T14:07:57.186Z,2.70
2018-12-29T14:10:28.649Z,2.70
2018-12-29T14:12:59.906Z,2.70
2018-12-29T14:15:31.214Z,2.70
2018-12-29T14:18:02.560Z,2.70
2018-12-29T14:20:34.270Z,2.70
2018-12-29T14:23:05.649Z,2.70
2018-12-29T14:25:36.917Z,2.70
2018-12-29T14:28:08.533Z,2.70
2018-12-29T14:30:39.768Z,2.70
2018-12-29T14:33:11.050Z,2.70
2018-12-29T14:35:42.306Z,2.80
2018-12-29T14:38:13.625Z,2.70
2018-12-29T14:40:44.868Z,2.70
2018-12-29T14:43:16.157Z,2.70
2018-12-29T14:45:47.889Z,2.80
2018-12-29T14:48:19.198Z,2.70
2018-12-29T14:50:50.916Z,2.80
2018-12-29T14:53:23.177Z,2.80
2018-12-29T14:55:54.529Z,2.80
2018-12-29T14:58:25.765Z,2.80
2018-12-29T15:00:57.193Z,2.80
2018-12-29T15:03:28.474Z,2.80
2018-12-29T15:05:59.886Z,2.80
2018-12-29T15:08:31.462Z,2.70
2018-12-29T15:11:02.728Z,2.80
2018-12-29T15:13:34.396Z,2.80
2018-12-29T15:16:05.655Z,2.80
2018-12-29T15:18:43.473Z,2.80
2018-12-29T15:21:10.250Z,2.80
2018-12-29T15:23:41.502Z,2.80
2018-12-29T15:26:13.351Z,2.80
2018-12-29T15:28:44.626Z,2.80
2018-12-29T15:31:15.878Z,2.80
2018-12-29T15:33:47.606Z,2.80
2018-12-29T15:36:18.965Z,2.80
2018-12-29T15:38:51.897Z,2.70
2018-12-29T15:41:24.566Z,2.80
2018-12-29T15:43:57.194Z,2.80
2018-12-29T15:46:28.497Z,2.70
2018-12-29T15:48:59.853Z,2.70
2018-12-29T15:51:31.656Z,2.70
2018-12-29T15:54:02.929Z,2.70
2018-12-29T15:56:34.577Z,2.80
2018-12-29T15:59:05.841Z,2.80
2018-12-29T16:01:37.140Z,2.80
2018-12-29T16:04:09.437Z,2.80
2018-12-29T16:06:40.907Z,2.80
2018-12-29T16:09:13.145Z,2.80
2018-12-29T16:11:44.781Z,2.80
2018-12-29T16:14:16.163Z,2.80
2018-12-29T16:16:47.797Z,2.80
2018-12-29T16:19:19.021Z,2.70
2018-12-29T16:21:50.706Z,2.70
2018-12-29T16:24:22.269Z,2.80
2018-12-29T16:26:54.050Z,2.80
2018-12-29T16:29:25.479Z,2.80
2018-12-29T16:31:56.736Z,2.80
2018-12-29T16:34:28.701Z,2.80
2018-12-29T16:36:59.995Z,2.80
2018-12-29T16:39:31.656Z,2.80
2018-12-29T16:42:02.916Z,2.80
2018-12-29T16:44:34.245Z,2.80
2018-12-29T16:47:05.672Z,2.80
2018-12-29T16:49:38.593Z,2.80
2018-12-29T16:52:10.254Z,2.80
2018-12-29T16:54:43.064Z,2.80
2018-12-29T16:57:14.389Z,2.80
2018-12-29T16:59:45.735Z,2.80
2018-12-29T17:02:17.390Z,2.80
2018-12-29T17:04:49.098Z,2.80
2018-12-29T17:07:20.405Z,2.80
2018-12-29T17:09:51.662Z,2.90
2018-12-29T17:12:23.323Z,2.80
2018-12-29T17:14:54.623Z,2.90
2018-12-29T17:17:25.889Z,2.90
2018-12-29T17:19:57.145Z,2.90
2018-12-29T17:22:28.470Z,2.90
2018-12-29T17:24:59.684Z,2.90
2018-12-29T17:27:31.056Z,2.90
2018-12-29T17:30:02.595Z,2.90
2018-12-29T17:32:33.875Z,2.90
2018-12-29T17:35:05.305Z,2.90
2018-12-29T17:37:36.536Z,2.90
2018-12-29T17:40:07.830Z,3.00
2018-12-29T17:42:39.045Z,3.00
2018-12-29T17:45:11.614Z,3.00
2018-12-29T17:47:42.880Z,3.00
2018-12-29T17:50:14.309Z,3.00
2018-12-29T17:52:45.577Z,3.00
2018-12-29T17:55:18.874Z,2.90
2018-12-29T17:57:50.578Z,2.90
2018-12-29T18:00:21.881Z,2.90
2018-12-29T18:02:53.239Z,2.80
2018-12-29T18:05:24.469Z,2.80
2018-12-29T18:07:56.237Z,2.80
2018-12-29T18:10:27.853Z,2.80
2018-12-29T18:12:59.604Z,2.80
2018-12-29T18:15:30.889Z,2.80
2018-12-29T18:18:02.603Z,2.80
2018-12-29T18:20:35.762Z,2.80
2018-12-29T18:23:07.079Z,2.80
2018-12-29T18:25:38.387Z,2.80
2018-12-29T18:28:09.754Z,2.80
2018-12-29T18:30:41.703Z,2.80
2018-12-29T18:33:13.226Z,2.80
2018-12-29T18:35:44.519Z,2.80
2018-12-29T18:38:15.777Z,2.80
2018-12-29T18:40:47.044Z,2.80
2018-12-29T18:43:18.396Z,2.80
2018-12-29T18:45:50.054Z,2.80
2018-12-29T18:48:21.347Z,2.80
2018-12-29T18:50:53.170Z,2.80
2018-12-29T18:53:25.085Z,2.80
2018-12-29T18:55:56.380Z,2.80
2018-12-29T18:58:27.903Z,2.90
2018-12-29T19:00:59.253Z,2.90
2018-12-29T19:03:30.514Z,2.90
2018-12-29T19:06:02.072Z,2.90
2018-12-29T19:08:33.538Z,2.90
2018-12-29T19:11:04.803Z,2.90
2018-12-29T19:13:36.081Z,2.90
2018-12-29T19:16:07.866Z,3.00
2018-12-29T19:18:41.519Z,3.00
2018-12-29T19:21:13.029Z,3.00
2018-12-29T19:23:44.580Z,3.00
2018-12-29T19:26:21.520Z,3.00
2018-12-29T19:28:53.109Z,3.00
2018-12-29T19:31:25.365Z,3.00
2018-12-29T19:33:56.797Z,3.00
2018-12-29T19:36:28.065Z,3.00
2018-12-29T19:38:59.629Z,3.00
2018-12-29T19:41:30.945Z,3.00
2018-12-29T19:44:02.341Z,3.00
2018-12-29T19:46:34.040Z,3.00
2018-12-29T19:49:06.746Z,3.00
2018-12-29T19:51:37.997Z,3.00
2018-12-29T19:54:09.469Z,3.00
2018-12-29T19:56:40.928Z,3.00
2018-12-29T19:59:13.403Z,3.00
2018-12-29T20:01:44.830Z,3.00
2018-12-29T20:04:16.620Z,3.00
2018-12-29T20:06:48.093Z,3.00
2018-12-29T20:09:23.278Z,3.00
2018-12-29T20:11:57.665Z,3.00
2018-12-29T20:14:30.282Z,3.00
2018-12-29T20:17:01.692Z,3.10
2018-12-29T20:19:33.560Z,3.10
2018-12-29T20:22:04.902Z,3.10
2018-12-29T20:24:36.304Z,3.10
2018-12-29T20:27:07.631Z,3.10
2018-12-29T20:29:38.866Z,3.10
2018-12-29T20:32:10.178Z,3.10
2018-12-29T20:34:41.522Z,3.10
2018-12-29T20:37:13.001Z,3.20
2018-12-29T20:39:44.253Z,3.20
2018-12-29T20:42:15.514Z,3.20
2018-12-29T20:44:47.079Z,3.20
2018-12-29T20:47:18.520Z,3.20
2018-12-29T20:49:49.832Z,3.20
2018-12-29T20:52:21.108Z,3.20
2018-12-29T20:54:52.587Z,3.20
2018-12-29T20:57:23.817Z,3.20
2018-12-29T20:59:55.093Z,3.30
2018-12-29T21:02:27.243Z,3.30
2018-12-29T21:05:00.387Z,3.30
2018-12-29T21:07:31.954Z,3.30
2018-12-29T21:10:03.539Z,3.30
2018-12-29T21:12:35.708Z,3.30
2018-12-29T21:15:08.030Z,3.30
2018-12-29T21:17:40.161Z,3.30
2018-12-29T21:20:17.295Z,3.30
2018-12-29T21:22:44.338Z,3.30
2018-12-29T21:25:15.748Z,3.30
2018-12-29T21:27:47.107Z,3.30
2018-12-29T21:30:18.487Z,3.30
2018-12-29T21:32:49.765Z,3.30
2018-12-29T21:35:20.988Z,3.30
2018-12-29T21:37:52.324Z,3.30
2018-12-29T21:40:23.804Z,3.30
2018-12-29T21:42:55.244Z,3.30
2018-12-29T21:45:26.692Z,3.30
2018-12-29T21:47:58.977Z,3.30
2018-12-29T21:50:30.307Z,3.30
2018-12-29T21:53:02.339Z,3.30
2018-12-29T21:55:33.884Z,3.30
2018-12-29T21:58:05.165Z,3.30
2018-12-29T22:00:36.760Z,3.30
2018-12-29T22:03:08.041Z,3.40
2018-12-29T22:05:39.362Z,3.40
2018-12-29T22:08:11.789Z,3.40
2018-12-29T22:10:44.326Z,3.40
2018-12-29T22:13:15.615Z,3.40
2018-12-29T22:15:46.847Z,3.40
2018-12-29T22:18:18.600Z,3.40
2018-12-29T22:20:49.843Z,3.40
2018-12-29T22:23:21.615Z,3.40
2018-12-29T22:25:53.174Z,3.40
2018-12-29T22:28:24.519Z,3.50
2018-12-29T22:30:55.907Z,3.50
2018-12-29T22:33:27.650Z,3.40
2018-12-29T22:36:00.076Z,3.50
2018-12-29T22:38:31.595Z,3.50
2018-12-29T22:41:02.959Z,3.50
2018-12-29T22:43:34.289Z,3.50
2018-12-29T22:46:05.834Z,3.50
2018-12-29T22:48:38.437Z,3.50
2018-12-29T22:51:09.942Z,3.50
2018-12-29T22:53:42.289Z,3.60
2018-12-29T22:56:14.157Z,3.60
2018-12-29T22:58:52.053Z,3.60
2018-12-29T23:01:24.501Z,3.60
2018-12-29T23:03:56.262Z,3.60
2018-12-29T23:06:28.607Z,3.60
2018-12-29T23:09:00.157Z,3.60
2018-12-29T23:11:31.865Z,3.70
2018-12-29T23:14:03.112Z,3.70
2018-12-29T23:16:34.365Z,3.70
2018-12-29T23:19:05.615Z,3.70
2018-12-29T23:21:37.314Z,3.70
2018-12-29T23:24:08.884Z,3.70
2018-12-29T23:26:40.144Z,3.70
2018-12-29T23:29:12.941Z,3.70
2018-12-29T23:31:44.297Z,3.70
2018-12-29T23:34:16.117Z,3.70
2018-12-29T23:36:47.377Z,3.70
2018-12-29T23:39:18.946Z,3.70
2018-12-29T23:41:50.773Z,3.80
2018-12-29T23:44:22.026Z,3.80
2018-12-29T23:46:53.501Z,3.80
2018-12-29T23:49:25.839Z,3.80
2018-12-29T23:51:57.502Z,3.80
2018-12-29T23:54:28.833Z,3.80
2018-12-29T23:57:00.948Z,3.80
2018-12-29T23:59:33.208Z,3.90
